createdAt,value
2018-10-17T00:00:03.340Z,67.23
2018-10-17T00:02:30.980Z,67.20
2018-10-17T00:04:58.661Z,66.67
2018-10-17T00:07:26.391Z,67.05
2018-10-17T00:09:54.002Z,67.03
2018-10-17T00:12:21.678Z,66.93
2018-10-17T00:14:49.308Z,66.37
2018-10-17T00:17:17.000Z,66.79
2018-10-17T00:19:44.699Z,66.58
2018-10-17T00:22:12.282Z,67.03
2018-10-17T00:24:39.925Z,66.84
2018-10-17T00:27:07.585Z,67.48
2018-10-17T00:29:35.176Z,67.69
2018-10-17T00:32:02.859Z,67.61
2018-10-17T00:34:30.519Z,67.94
2018-10-17T00:36:58.269Z,68.29
2018-10-17T00:39:25.880Z,68.69
2018-10-17T00:41:53.545Z,68.45
2018-10-17T00:44:21.135Z,69.13
2018-10-17T00:46:48.812Z,69.04
2018-10-17T00:49:16.531Z,68.90
2018-10-17T00:51:44.101Z,68.82
2018-10-17T00:54:11.883Z,68.92
2018-10-17T00:56:39.597Z,69.03
2018-10-17T00:59:12.689Z,69.46
2018-10-17T01:01:40.343Z,69.00
2018-10-17T01:04:08.249Z,69.22
2018-10-17T01:06:36.337Z,68.95
2018-10-17T01:09:08.432Z,68.72
2018-10-17T01:11:36.718Z,68.43
2018-10-17T01:14:04.762Z,68.41
2018-10-17T01:16:32.590Z,68.37
2018-10-17T01:19:00.757Z,69.10
2018-10-17T01:21:28.413Z,68.73
2018-10-17T01:23:56.083Z,68.19
2018-10-17T01:26:23.756Z,68.03
2018-10-17T01:28:51.735Z,68.14
2018-10-17T01:31:19.388Z,68.30
2018-10-17T01:33:47.052Z,68.36
2018-10-17T01:36:14.856Z,68.69
2018-10-17T01:38:42.582Z,68.37
2018-10-17T01:41:10.331Z,68.93
2018-10-17T01:43:37.969Z,69.29
2018-10-17T01:46:05.640Z,69.21
2018-10-17T01:48:33.309Z,69.49
2018-10-17T01:51:00.979Z,69.59
2018-10-17T01:53:28.869Z,68.60
2018-10-17T01:55:56.585Z,68.54
2018-10-17T01:58:24.173Z,69.32
2018-10-17T02:00:52.035Z,69.66
2018-10-17T02:03:19.680Z,69.31
2018-10-17T02:05:47.291Z,69.33
2018-10-17T02:08:14.930Z,68.91
2018-10-17T02:10:42.538Z,68.76
2018-10-17T02:13:10.293Z,69.15
2018-10-17T02:15:37.954Z,69.21
2018-10-17T02:18:05.743Z,68.69
2018-10-17T02:20:33.446Z,69.29
2018-10-17T02:23:01.188Z,68.74
2018-10-17T02:25:28.874Z,69.55
2018-10-17T02:27:56.544Z,69.18
2018-10-17T02:30:24.162Z,68.89
2018-10-17T02:32:51.817Z,68.93
2018-10-17T02:35:19.532Z,69.23
2018-10-17T02:37:47.414Z,69.79
2018-10-17T02:40:15.116Z,69.36
2018-10-17T02:42:42.816Z,69.44
2018-10-17T02:45:12.247Z,69.81
2018-10-17T02:47:39.888Z,69.51
2018-10-17T02:50:08.795Z,69.58
2018-10-17T02:52:37.899Z,69.97
2018-10-17T02:55:05.944Z,70.25
2018-10-17T02:57:33.842Z,69.67
2018-10-17T03:00:01.909Z,70.45
2018-10-17T03:02:29.827Z,70.20
2018-10-17T03:04:57.702Z,70.50
2018-10-17T03:07:25.540Z,69.86
2018-10-17T03:09:53.273Z,70.16
2018-10-17T03:12:20.975Z,69.95
2018-10-17T03:14:48.895Z,69.61
2018-10-17T03:17:16.721Z,70.38
2018-10-17T03:19:44.684Z,70.35
2018-10-17T03:22:12.389Z,70.47
2018-10-17T03:24:40.044Z,70.37
2018-10-17T03:27:07.696Z,70.36
2018-10-17T03:29:35.364Z,70.08
2018-10-17T03:32:03.371Z,70.28
2018-10-17T03:34:31.178Z,70.14
2018-10-17T03:36:58.870Z,70.20
2018-10-17T03:39:26.557Z,70.09
2018-10-17T03:41:54.134Z,70.40
2018-10-17T03:44:21.778Z,70.31
2018-10-17T03:46:49.406Z,70.50
2018-10-17T03:49:17.249Z,70.51
2018-10-17T03:51:44.777Z,70.93
2018-10-17T03:54:15.580Z,71.36
2018-10-17T03:56:43.227Z,70.87
2018-10-17T03:59:12.253Z,70.96
2018-10-17T04:01:39.915Z,71.21
2018-10-17T04:04:07.592Z,71.16
2018-10-17T04:06:35.648Z,71.31
2018-10-17T04:09:04.912Z,70.89
2018-10-17T04:11:32.629Z,70.95
2018-10-17T04:14:00.242Z,71.00
2018-10-17T04:16:27.994Z,71.34
2018-10-17T04:18:55.613Z,71.52
2018-10-17T04:21:23.328Z,71.21
2018-10-17T04:23:50.980Z,71.17
2018-10-17T04:26:18.669Z,71.36
2018-10-17T04:28:46.251Z,70.83
2018-10-17T04:31:14.020Z,70.58
2018-10-17T04:33:41.661Z,71.10
2018-10-17T04:36:09.463Z,71.00
2018-10-17T04:38:37.028Z,71.27
2018-10-17T04:41:04.746Z,71.15
2018-10-17T04:43:32.423Z,71.19
2018-10-17T04:46:00.083Z,71.10
2018-10-17T04:48:27.759Z,70.72
2018-10-17T04:50:55.497Z,70.64
2018-10-17T04:53:23.263Z,71.08
2018-10-17T04:55:50.955Z,71.20
2018-10-17T04:58:18.693Z,71.36
2018-10-17T05:00:46.430Z,70.81
2018-10-17T05:03:14.112Z,71.14
2018-10-17T05:05:41.783Z,71.40
2018-10-17T05:08:09.412Z,70.84
2018-10-17T05:10:37.078Z,71.19
2018-10-17T05:13:04.916Z,71.42
2018-10-17T05:15:32.643Z,70.90
2018-10-17T05:18:00.347Z,71.21
2018-10-17T05:20:28.042Z,71.29
2018-10-17T05:22:55.676Z,71.50
2018-10-17T05:25:23.393Z,71.87
2018-10-17T05:27:51.092Z,71.50
2018-10-17T05:30:18.766Z,71.69
2018-10-17T05:32:46.500Z,71.47
2018-10-17T05:35:14.186Z,71.12
2018-10-17T05:37:41.980Z,70.93
2018-10-17T05:40:09.571Z,71.19
2018-10-17T05:42:37.310Z,71.19
2018-10-17T05:45:06.676Z,70.64
2018-10-17T05:47:34.552Z,70.49
2018-10-17T05:50:02.342Z,70.80
2018-10-17T05:52:29.991Z,70.79
2018-10-17T05:54:57.792Z,70.38
2018-10-17T05:57:25.440Z,70.20
2018-10-17T05:59:53.204Z,70.85
2018-10-17T06:02:26.398Z,70.67
2018-10-17T06:04:54.502Z,70.08
2018-10-17T06:07:22.155Z,70.07
2018-10-17T06:09:49.830Z,69.53
2018-10-17T06:12:17.561Z,69.42
2018-10-17T06:14:45.252Z,69.14
2018-10-17T06:17:12.934Z,68.93
2018-10-17T06:19:40.759Z,68.21
2018-10-17T06:22:08.382Z,68.15
2018-10-17T06:24:36.122Z,67.76
2018-10-17T06:27:04.302Z,67.96
2018-10-17T06:29:31.942Z,67.40
2018-10-17T06:31:59.638Z,66.74
2018-10-17T06:34:27.376Z,66.91
2018-10-17T06:36:55.113Z,66.88
2018-10-17T06:39:22.769Z,66.37
2018-10-17T06:41:50.608Z,66.40
2018-10-17T06:44:18.343Z,65.91
2018-10-17T06:46:46.036Z,65.44
2018-10-17T06:49:13.764Z,64.87
2018-10-17T06:51:41.436Z,64.80
2018-10-17T06:54:09.135Z,64.49
2018-10-17T06:56:36.821Z,63.85
2018-10-17T06:59:05.013Z,64.06
2018-10-17T07:01:32.789Z,62.97
2018-10-17T07:04:00.904Z,62.34
2018-10-17T07:06:28.591Z,62.54
2018-10-17T07:08:56.307Z,62.24
2018-10-17T07:11:24.841Z,61.63
2018-10-17T07:13:52.505Z,61.46
2018-10-17T07:16:20.236Z,61.37
2018-10-17T07:18:47.953Z,60.85
2018-10-17T07:21:15.618Z,60.90
2018-10-17T07:23:43.657Z,58.37
2018-10-17T07:26:11.436Z,58.53
2018-10-17T07:28:39.162Z,58.08
2018-10-17T07:31:07.390Z,57.10
2018-10-17T07:33:35.042Z,56.74
2018-10-17T07:36:02.699Z,56.38
2018-10-17T07:38:30.381Z,56.67
2018-10-17T07:40:58.169Z,55.55
2018-10-17T07:43:25.869Z,55.24
2018-10-17T07:45:53.693Z,54.92
2018-10-17T07:48:21.424Z,54.10
2018-10-17T07:50:49.161Z,53.41
2018-10-17T07:54:20.919Z,53.58
2018-10-17T07:56:48.927Z,53.48
2018-10-17T07:59:16.591Z,53.42
2018-10-17T08:01:44.350Z,52.95
2018-10-17T08:04:12.028Z,52.29
2018-10-17T08:06:39.809Z,51.97
2018-10-17T08:09:09.424Z,51.58
2018-10-17T08:11:37.278Z,52.00
2018-10-17T08:14:05.374Z,51.39
2018-10-17T08:16:33.017Z,50.89
2018-10-17T08:19:00.902Z,50.86
2018-10-17T08:21:28.666Z,50.80
2018-10-17T08:23:56.491Z,50.84
2018-10-17T08:26:24.140Z,50.18
2018-10-17T08:28:52.339Z,50.50
2018-10-17T08:31:20.062Z,49.83
2018-10-17T08:33:48.376Z,50.04
2018-10-17T08:36:16.366Z,50.13
2018-10-17T08:38:43.934Z,49.47
2018-10-17T08:41:11.676Z,48.58
2018-10-17T08:43:39.340Z,49.04
2018-10-17T08:46:07.117Z,48.53
2018-10-17T08:48:34.797Z,48.04
2018-10-17T08:51:02.531Z,47.52
2018-10-17T08:53:30.080Z,47.77
2018-10-17T08:55:57.793Z,47.42
2018-10-17T08:58:25.459Z,46.74
2018-10-17T09:00:53.177Z,46.04
2018-10-17T09:03:20.875Z,45.73
2018-10-17T09:05:49.171Z,45.77
2018-10-17T09:08:16.982Z,45.77
2018-10-17T09:10:45.981Z,46.08
2018-10-17T09:13:13.695Z,45.64
2018-10-17T09:15:41.504Z,45.38
2018-10-17T09:18:09.262Z,44.63
2018-10-17T09:20:37.179Z,44.49
2018-10-17T09:23:04.981Z,44.43
2018-10-17T09:25:32.778Z,44.94
2018-10-17T09:28:00.371Z,45.63
2018-10-17T09:30:28.109Z,45.18
2018-10-17T09:32:55.659Z,43.84
2018-10-17T09:35:23.400Z,43.56
2018-10-17T09:37:51.094Z,43.23
2018-10-17T09:40:18.901Z,43.46
2018-10-17T09:42:46.563Z,43.61
2018-10-17T09:45:14.222Z,44.20
2018-10-17T09:47:41.835Z,43.65
2018-10-17T09:50:10.051Z,43.45
2018-10-17T09:52:37.734Z,42.73
2018-10-17T09:55:06.070Z,42.46
2018-10-17T09:57:33.767Z,42.97
2018-10-17T10:00:01.479Z,43.01
2018-10-17T10:02:29.161Z,42.86
2018-10-17T10:04:56.790Z,43.27
2018-10-17T10:07:24.406Z,42.08
2018-10-17T10:09:52.129Z,41.89
2018-10-17T10:12:19.804Z,41.99
2018-10-17T10:14:47.474Z,41.39
2018-10-17T10:17:15.292Z,41.76
2018-10-17T10:19:42.842Z,41.67
2018-10-17T10:22:10.605Z,41.42
2018-10-17T10:24:38.357Z,40.66
2018-10-17T10:27:06.220Z,41.08
2018-10-17T10:29:33.933Z,40.45
2018-10-17T10:32:01.637Z,40.19
2018-10-17T10:34:32.469Z,39.68
2018-10-17T10:37:00.132Z,39.48
2018-10-17T10:39:27.814Z,38.27
2018-10-17T10:41:55.485Z,38.47
2018-10-17T10:44:23.138Z,38.04
2018-10-17T10:46:50.846Z,38.56
2018-10-17T10:49:18.632Z,38.48
2018-10-17T10:51:46.234Z,38.57
2018-10-17T10:54:13.953Z,38.10
2018-10-17T10:56:41.689Z,37.82
2018-10-17T10:59:09.421Z,37.87
2018-10-17T11:01:37.109Z,36.57
2018-10-17T11:04:05.774Z,34.44
2018-10-17T11:06:33.499Z,31.75
2018-10-17T11:09:01.205Z,31.19
2018-10-17T11:11:28.905Z,27.93
2018-10-17T11:13:56.621Z,26.25
2018-10-17T11:16:24.288Z,24.06
2018-10-17T11:18:51.945Z,23.40
2018-10-17T11:21:19.691Z,22.04
2018-10-17T11:23:47.419Z,21.47
2018-10-17T11:26:15.335Z,19.13
2018-10-17T11:28:43.082Z,18.32
2018-10-17T11:31:10.821Z,17.86
2018-10-17T11:33:38.613Z,16.44
2018-10-17T11:36:06.338Z,16.49
2018-10-17T11:38:34.397Z,16.89
2018-10-17T11:41:02.141Z,15.39
2018-10-17T11:43:29.880Z,15.94
2018-10-17T11:45:57.542Z,14.72
2018-10-17T11:48:25.231Z,15.41
2018-10-17T11:50:52.903Z,14.49
2018-10-17T11:53:20.626Z,15.75
2018-10-17T11:55:48.376Z,14.77
2018-10-17T11:58:16.078Z,14.39
2018-10-17T12:00:43.775Z,13.55
2018-10-17T12:03:11.727Z,13.31
2018-10-17T12:05:39.709Z,13.14
2018-10-17T12:08:07.028Z,13.07
2018-10-17T12:10:34.639Z,13.08
2018-10-17T12:13:02.335Z,13.09
2018-10-17T12:15:29.996Z,12.60
2018-10-17T12:17:57.658Z,13.35
2018-10-17T12:20:25.313Z,14.10
2018-10-17T12:22:52.934Z,13.42
2018-10-17T12:25:20.621Z,13.18
2018-10-17T12:27:48.516Z,12.32
2018-10-17T12:30:16.238Z,12.86
2018-10-17T12:32:43.957Z,13.40
2018-10-17T12:35:12.127Z,12.47
2018-10-17T12:37:39.769Z,11.92
2018-10-17T12:40:09.285Z,12.67
2018-10-17T12:42:37.027Z,13.52
2018-10-17T12:45:05.022Z,12.45
2018-10-17T12:47:32.722Z,12.03
2018-10-17T12:50:00.480Z,12.27
2018-10-17T12:52:28.634Z,11.92
2018-10-17T12:54:56.453Z,11.95
2018-10-17T12:57:24.046Z,11.99
2018-10-17T12:59:51.735Z,13.47
2018-10-17T13:02:19.503Z,16.10
2018-10-17T13:04:47.191Z,18.90
2018-10-17T13:07:15.133Z,22.03
2018-10-17T13:09:42.775Z,20.81
2018-10-17T13:12:10.498Z,22.70
2018-10-17T13:14:38.130Z,24.39
2018-10-17T13:17:05.888Z,23.60
2018-10-17T13:19:33.465Z,21.32
2018-10-17T13:22:01.097Z,19.92
2018-10-17T13:24:28.769Z,19.59
2018-10-17T13:26:56.396Z,18.92
2018-10-17T13:29:24.105Z,17.25
2018-10-17T13:31:51.826Z,16.99
2018-10-17T13:34:19.690Z,16.62
2018-10-17T13:36:47.346Z,17.66
2018-10-17T13:39:15.098Z,16.68
2018-10-17T13:41:42.721Z,16.34
2018-10-17T13:44:10.557Z,17.54
2018-10-17T13:46:38.657Z,18.19
2018-10-17T13:49:06.405Z,18.01
2018-10-17T13:51:34.019Z,19.04
2018-10-17T13:54:01.679Z,18.06
2018-10-17T13:56:29.623Z,17.13
2018-10-17T13:58:57.543Z,17.90
2018-10-17T14:01:25.377Z,17.11
2018-10-17T14:03:53.199Z,16.85
2018-10-17T14:06:20.841Z,16.19
2018-10-17T14:08:48.718Z,15.62
2018-10-17T14:11:16.474Z,16.67
2018-10-17T14:13:44.096Z,16.11
2018-10-17T14:16:11.893Z,16.01
2018-10-17T14:18:39.573Z,15.92
2018-10-17T14:21:07.535Z,15.96
2018-10-17T14:23:35.214Z,16.32
2018-10-17T14:26:02.881Z,16.41
2018-10-17T14:28:30.669Z,18.64
2018-10-17T14:30:58.576Z,20.63
2018-10-17T14:33:26.266Z,21.29
2018-10-17T14:35:53.935Z,21.04
2018-10-17T14:38:21.592Z,21.35
2018-10-17T14:40:49.263Z,21.97
2018-10-17T14:43:17.028Z,22.26
2018-10-17T14:45:44.726Z,22.56
2018-10-17T14:48:12.463Z,23.00
2018-10-17T14:50:40.192Z,21.55
2018-10-17T14:53:08.249Z,22.11
2018-10-17T14:55:35.992Z,23.25
2018-10-17T14:58:03.810Z,25.26
2018-10-17T15:00:31.526Z,28.16
2018-10-17T15:02:59.359Z,28.69
2018-10-17T15:05:27.158Z,30.29
2018-10-17T15:07:54.802Z,30.92
2018-10-17T15:10:22.616Z,31.01
2018-10-17T15:12:50.316Z,32.30
2018-10-17T15:15:18.089Z,32.62
2018-10-17T15:17:45.816Z,33.79
2018-10-17T15:20:13.504Z,33.77
2018-10-17T15:22:41.184Z,34.63
2018-10-17T15:25:08.877Z,35.63
2018-10-17T15:27:36.697Z,35.71
2018-10-17T15:30:05.793Z,37.52
2018-10-17T15:32:33.466Z,37.38
2018-10-17T15:35:01.218Z,37.58
2018-10-17T15:37:28.870Z,38.07
2018-10-17T15:39:56.642Z,38.03
2018-10-17T15:42:24.457Z,38.90
2018-10-17T15:44:52.286Z,39.23
2018-10-17T15:47:19.986Z,39.85
2018-10-17T15:49:47.606Z,40.10
2018-10-17T15:52:15.396Z,40.51
2018-10-17T15:54:43.075Z,42.08
2018-10-17T15:57:10.847Z,42.90
2018-10-17T15:59:38.437Z,43.98
2018-10-17T16:02:06.228Z,44.20
2018-10-17T16:04:33.773Z,44.61
2018-10-17T16:07:01.465Z,44.26
2018-10-17T16:09:29.263Z,44.34
2018-10-17T16:11:56.981Z,45.00
2018-10-17T16:14:24.662Z,44.97
2018-10-17T16:16:53.050Z,47.06
2018-10-17T16:19:21.667Z,46.86
2018-10-17T16:21:49.314Z,48.41
2018-10-17T16:24:17.253Z,48.01
2018-10-17T16:26:44.847Z,48.90
2018-10-17T16:29:13.060Z,49.71
2018-10-17T16:31:40.750Z,51.04
2018-10-17T16:34:08.501Z,51.40
2018-10-17T16:36:36.200Z,51.84
2018-10-17T16:39:06.928Z,50.93
2018-10-17T16:41:34.719Z,51.05
2018-10-17T16:44:02.509Z,51.17
2018-10-17T16:46:30.253Z,52.40
2018-10-17T16:48:58.622Z,51.62
2018-10-17T16:51:26.294Z,51.23
2018-10-17T16:53:54.031Z,52.55
2018-10-17T16:56:21.704Z,52.37
2018-10-17T16:58:49.544Z,52.87
2018-10-17T17:01:17.132Z,52.93
2018-10-17T17:03:44.784Z,54.08
2018-10-17T17:06:12.591Z,53.81
2018-10-17T17:08:40.235Z,54.29
2018-10-17T17:11:07.918Z,54.82
2018-10-17T17:13:35.638Z,54.72
2018-10-17T17:16:03.559Z,55.32
2018-10-17T17:18:31.215Z,54.99
2018-10-17T17:20:58.884Z,55.70
2018-10-17T17:23:33.342Z,55.31
2018-10-17T17:26:01.142Z,55.53
2018-10-17T17:28:28.946Z,55.53
2018-10-17T17:30:56.679Z,55.62
2018-10-17T17:33:24.476Z,55.80
2018-10-17T17:35:52.471Z,55.42
2018-10-17T17:38:20.199Z,56.13
2018-10-17T17:40:47.897Z,55.78
2018-10-17T17:43:15.663Z,56.11
2018-10-17T17:45:43.358Z,56.04
2018-10-17T17:48:11.035Z,56.71
2018-10-17T17:53:13.352Z,56.38
2018-10-17T17:55:41.031Z,56.41
2018-10-17T17:58:08.859Z,57.10
2018-10-17T18:00:36.594Z,57.67
2018-10-17T18:03:04.724Z,57.28
2018-10-17T18:05:32.470Z,57.84
2018-10-17T18:08:00.198Z,57.50
2018-10-17T18:10:28.948Z,58.24
2018-10-17T18:12:56.664Z,58.74
2018-10-17T18:15:24.328Z,58.63
2018-10-17T18:17:52.110Z,59.13
2018-10-17T18:20:19.875Z,59.15
2018-10-17T18:22:47.461Z,58.47
2018-10-17T18:25:15.244Z,58.78
2018-10-17T18:27:43.663Z,58.90
2018-10-17T18:30:11.596Z,59.64
2018-10-17T18:32:39.508Z,59.63
2018-10-17T18:35:07.458Z,60.13
2018-10-17T18:37:35.706Z,60.30
2018-10-17T18:40:03.898Z,61.12
2018-10-17T18:42:31.599Z,61.07
2018-10-17T18:44:59.364Z,61.07
2018-10-17T18:47:27.446Z,61.24
2018-10-17T18:49:55.246Z,62.16
2018-10-17T18:52:23.900Z,62.23
2018-10-17T18:54:51.648Z,62.35
2018-10-17T18:57:19.489Z,62.06
2018-10-17T18:59:47.253Z,62.53
2018-10-17T19:02:14.946Z,62.35
2018-10-17T19:04:42.755Z,62.90
2018-10-17T19:07:10.661Z,62.79
2018-10-17T19:09:38.299Z,62.73
2018-10-17T19:12:06.327Z,62.70
2018-10-17T19:14:34.163Z,62.69
2018-10-17T19:17:02.590Z,63.18
2018-10-17T19:19:30.323Z,63.11
2018-10-17T19:21:58.266Z,63.50
2018-10-17T19:24:26.251Z,63.78
2018-10-17T19:26:54.020Z,63.67
2018-10-17T19:29:21.808Z,63.57
2018-10-17T19:31:49.829Z,63.53
2018-10-17T19:34:17.579Z,63.73
2018-10-17T19:36:45.328Z,64.18
2018-10-17T19:39:13.360Z,64.78
2018-10-17T19:41:41.562Z,64.11
2018-10-17T19:44:09.291Z,64.31
2018-10-17T19:46:37.034Z,64.56
2018-10-17T19:49:05.154Z,64.13
2018-10-17T19:51:32.878Z,64.08
2018-10-17T19:54:01.357Z,64.80
2018-10-17T19:56:29.211Z,64.16
2018-10-17T19:58:57.192Z,64.16
2018-10-17T20:01:24.879Z,64.00
2018-10-17T20:03:52.669Z,64.40
2018-10-17T20:06:20.456Z,64.58
2018-10-17T20:08:48.276Z,64.02
2018-10-17T20:11:16.246Z,64.15
2018-10-17T20:13:44.179Z,64.16
2018-10-17T20:16:12.023Z,63.78
2018-10-17T20:18:39.675Z,63.67
2018-10-17T20:21:07.475Z,63.62
2018-10-17T20:23:35.314Z,63.88
2018-10-17T20:26:03.254Z,63.78
2018-10-17T20:28:31.124Z,63.86
2018-10-17T20:30:59.093Z,64.19
2018-10-17T20:33:26.893Z,64.16
2018-10-17T20:35:55.221Z,64.37
2018-10-17T20:38:23.290Z,63.96
2018-10-17T20:40:51.526Z,64.41
2018-10-17T20:43:19.682Z,63.37
2018-10-17T20:45:47.373Z,64.42
2018-10-17T20:48:15.312Z,64.24
2018-10-17T20:50:43.185Z,64.06
2018-10-17T20:53:10.922Z,64.22
2018-10-17T20:55:38.603Z,64.83
2018-10-17T20:58:06.360Z,64.60
2018-10-17T21:00:34.056Z,64.33
2018-10-17T21:03:01.809Z,64.48
2018-10-17T21:05:29.581Z,65.24
2018-10-17T21:07:57.357Z,65.32
2018-10-17T21:10:25.435Z,64.83
2018-10-17T21:12:53.095Z,66.02
2018-10-17T21:15:20.761Z,65.79
2018-10-17T21:17:48.462Z,65.91
2018-10-17T21:20:17.410Z,65.80
2018-10-17T21:22:44.929Z,64.90
2018-10-17T21:25:12.571Z,65.00
2018-10-17T21:27:40.305Z,64.52
2018-10-17T21:30:09.157Z,64.76
2018-10-17T21:32:36.863Z,65.28
2018-10-17T21:35:05.691Z,65.37
2018-10-17T21:37:33.433Z,66.01
2018-10-17T21:40:01.115Z,66.26
2018-10-17T21:42:29.025Z,66.71
2018-10-17T21:44:56.745Z,67.00
2018-10-17T21:47:24.523Z,66.86
2018-10-17T21:49:52.179Z,67.15
2018-10-17T21:52:19.855Z,67.57
2018-10-17T21:54:47.535Z,67.13
2018-10-17T21:57:15.178Z,67.07
2018-10-17T21:59:42.771Z,67.67
2018-10-17T22:02:10.509Z,67.69
2018-10-17T22:04:38.120Z,67.53
2018-10-17T22:07:05.766Z,68.26
2018-10-17T22:09:33.479Z,68.18
2018-10-17T22:12:01.062Z,68.25
2018-10-17T22:14:28.678Z,68.18
2018-10-17T22:17:02.039Z,68.85
2018-10-17T22:19:29.677Z,68.69
2018-10-17T22:21:57.281Z,69.07
2018-10-17T22:24:24.932Z,69.21
2018-10-17T22:26:52.565Z,68.86
2018-10-17T22:29:20.246Z,69.56
2018-10-17T22:31:47.923Z,69.72
2018-10-17T22:34:15.784Z,69.73
2018-10-17T22:36:43.438Z,69.21
2018-10-17T22:39:13.535Z,69.45
2018-10-17T22:41:41.697Z,69.56
2018-10-17T22:44:09.537Z,70.09
2018-10-17T22:46:37.234Z,69.96
2018-10-17T22:49:05.399Z,69.63
2018-10-17T22:51:33.048Z,69.67
2018-10-17T22:54:00.692Z,69.69
2018-10-17T22:56:28.288Z,70.01
2018-10-17T22:58:55.925Z,69.90
2018-10-17T23:01:23.526Z,69.95
2018-10-17T23:03:51.174Z,69.86
2018-10-17T23:06:18.905Z,70.01
2018-10-17T23:08:46.606Z,70.16
2018-10-17T23:11:14.331Z,70.52
2018-10-17T23:13:41.950Z,70.15
2018-10-17T23:16:09.592Z,70.33
2018-10-17T23:18:37.263Z,70.56
2018-10-17T23:21:05.021Z,70.53
2018-10-17T23:23:32.692Z,70.63
2018-10-17T23:26:00.708Z,70.35
2018-10-17T23:28:28.388Z,70.63
2018-10-17T23:30:56.084Z,70.84
2018-10-17T23:33:23.742Z,70.93
2018-10-17T23:35:51.401Z,70.81
2018-10-17T23:38:19.076Z,70.94
2018-10-17T23:40:46.732Z,71.16
2018-10-17T23:43:14.476Z,70.84
2018-10-17T23:45:42.158Z,71.14
2018-10-17T23:48:10.049Z,70.75
2018-10-17T23:50:38.114Z,71.21
2018-10-17T23:53:06.630Z,71.36
2018-10-17T23:55:34.289Z,70.73
2018-10-17T23:58:01.917Z,70.60
